Woking, Canada
Current Conditions -  °F | °C
As of 8:11 PM on Thursday 18 Dec 2014 (Local Time) from CYQU Reporting Station
Moderate Fog Moderate Fog  
Wind Chill:   Ceiling: Unl
Heat Index:   Visibility: 0.5mi
Dew Point:   Wind: 3mph
Humidity: 92%   Direction: 300°WNW
Pressure: 29.74"   Gusts: NA
Location:  55.6°N, 118.77°W
Report Text: CYQU 190311Z 30003KT 1/2SM FZFG SKC M14/M15 A2974 RMK FG5 SLP123
Loading
Personal Weather Stations






























Interactive Weather Map New forecast layout! Learn more

10-Day Weather Forecast

Advertisements
Track Severe Weather on mobile